sensor_id;sensor_type;location;lat;lon;timestamp;pressure;altitude;pressure_sealevel;temperature;humidity
25350;BME280;13302;48.796;11.978;2023-01-13T00:01:50;96606.66;;;10.49;32.44
25350;BME280;13302;48.796;11.978;2023-01-13T00:04:37;96603.91;;;10.49;32.46
25350;BME280;13302;48.796;11.978;2023-01-13T00:07:24;96603.53;;;10.51;32.44
25350;BME280;13302;48.796;11.978;2023-01-13T00:10:12;96598.00;;;10.51;32.44
25350;BME280;13302;48.796;11.978;2023-01-13T00:13:00;96591.31;;;10.52;32.34
25350;BME280;13302;48.796;11.978;2023-01-13T00:15:57;96589.72;;;10.51;32.51
25350;BME280;13302;48.796;11.978;2023-01-13T00:18:46;96588.56;;;10.52;32.16
25350;BME280;13302;48.796;11.978;2023-01-13T00:21:34;96577.50;;;10.52;32.45
25350;BME280;13302;48.796;11.978;2023-01-13T00:24:22;96584.25;;;10.54;32.48
25350;BME280;13302;48.796;11.978;2023-01-13T00:27:09;96585.06;;;10.55;32.28
25350;BME280;13302;48.796;11.978;2023-01-13T00:29:57;96583.09;;;10.55;32.52
25350;BME280;13302;48.796;11.978;2023-01-13T00:32:44;96585.88;;;10.55;32.55
25350;BME280;13302;48.796;11.978;2023-01-13T00:35:31;96576.44;;;10.56;32.42
25350;BME280;13302;48.796;11.978;2023-01-13T00:38:18;96570.91;;;10.56;32.22
25350;BME280;13302;48.796;11.978;2023-01-13T00:41:10;96572.84;;;10.56;32.24
25350;BME280;13302;48.796;11.978;2023-01-13T00:43:58;96579.19;;;10.56;32.17
25350;BME280;13302;48.796;11.978;2023-01-13T00:46:46;96574.00;;;10.55;32.65
25350;BME280;13302;48.796;11.978;2023-01-13T00:49:33;96575.19;;;10.54;32.57
25350;BME280;13302;48.796;11.978;2023-01-13T00:52:20;96567.69;;;10.54;32.62
25350;BME280;13302;48.796;11.978;2023-01-13T00:55:07;96551.91;;;10.55;32.34
25350;BME280;13302;48.796;11.978;2023-01-13T00:57:55;96542.03;;;10.54;32.50
25350;BME280;13302;48.796;11.978;2023-01-13T01:00:49;96545.94;;;10.53;32.56
25350;BME280;13302;48.796;11.978;2023-01-13T01:03:36;96548.34;;;10.54;32.57
25350;BME280;13302;48.796;11.978;2023-01-13T01:06:25;96552.28;;;10.53;32.36
25350;BME280;13302;48.796;11.978;2023-01-13T01:09:14;96537.19;;;10.51;32.50
25350;BME280;13302;48.796;11.978;2023-01-13T01:12:01;96545.47;;;10.51;32.68
25350;BME280;13302;48.796;11.978;2023-01-13T01:14:49;96539.53;;;10.49;32.29
25350;BME280;13302;48.796;11.978;2023-01-13T01:17:36;96534.81;;;10.49;32.65
25350;BME280;13302;48.796;11.978;2023-01-13T01:20:23;96532.03;;;10.49;32.46
25350;BME280;13302;48.796;11.978;2023-01-13T01:23:10;96538.00;;;10.51;32.64
25350;BME280;13302;48.796;11.978;2023-01-13T01:26:07;96539.59;;;10.52;32.76
25350;BME280;13302;48.796;11.978;2023-01-13T01:28:54;96528.97;;;10.54;32.74
25350;BME280;13302;48.796;11.978;2023-01-13T01:31:42;96532.19;;;10.56;32.66
25350;BME280;13302;48.796;11.978;2023-01-13T01:34:30;96523.91;;;10.56;32.49
25350;BME280;13302;48.796;11.978;2023-01-13T01:37:17;96523.91;;;10.56;32.61
25350;BME280;13302;48.796;11.978;2023-01-13T01:40:04;96525.06;;;10.55;32.59
25350;BME280;13302;48.796;11.978;2023-01-13T01:42:52;96518.38;;;10.56;32.49
25350;BME280;13302;48.796;11.978;2023-01-13T01:45:57;96517.25;;;10.57;32.49
25350;BME280;13302;48.796;11.978;2023-01-13T01:48:45;96519.66;;;10.59;32.51
25350;BME280;13302;48.796;11.978;2023-01-13T01:51:35;96524.81;;;10.61;32.65
25350;BME280;13302;48.796;11.978;2023-01-13T01:54:37;96511.34;;;10.59;32.48
25350;BME280;13302;48.796;11.978;2023-01-13T01:57:34;96517.25;;;10.57;32.57
25350;BME280;13302;48.796;11.978;2023-01-13T02:00:24;96502.59;;;10.57;32.65
25350;BME280;13302;48.796;11.978;2023-01-13T02:03:14;96512.06;;;10.56;32.78
25350;BME280;13302;48.796;11.978;2023-01-13T02:06:02;96510.56;;;10.58;32.83
25350;BME280;13302;48.796;11.978;2023-01-13T02:08:50;96510.19;;;10.60;32.72
25350;BME280;13302;48.796;11.978;2023-01-13T02:11:38;96495.22;;;10.61;32.44
25350;BME280;13302;48.796;11.978;2023-01-13T02:14:44;96494.06;;;10.62;32.72
25350;BME280;13302;48.796;11.978;2023-01-13T02:17:35;96495.66;;;10.63;32.62
25350;BME280;13302;48.796;11.978;2023-01-13T02:20:47;96486.56;;;10.63;32.69
25350;BME280;13302;48.796;11.978;2023-01-13T02:27:39;96486.56;;;10.63;32.83
25350;BME280;13302;48.796;11.978;2023-01-13T02:30:39;96481.13;;;10.66;32.74
25350;BME280;13302;48.796;11.978;2023-01-13T02:33:57;96480.75;;;10.68;32.60
25350;BME280;13302;48.796;11.978;2023-01-13T02:37:06;96482.78;;;10.71;32.54
25350;BME280;13302;48.796;11.978;2023-01-13T02:40:01;96478.13;;;10.75;32.52
25350;BME280;13302;48.796;11.978;2023-01-13T02:42:57;96489.19;;;10.75;32.35
25350;BME280;13302;48.796;11.978;2023-01-13T02:46:19;96473.00;;;10.73;32.36
25350;BME280;13302;48.796;11.978;2023-01-13T02:49:12;96474.22;;;10.76;32.66
25350;BME280;13302;48.796;11.978;2023-01-13T02:52:09;96469.50;;;10.76;32.44
25350;BME280;13302;48.796;11.978;2023-01-13T02:55:02;96469.16;;;10.78;32.58
25350;BME280;13302;48.796;11.978;2023-01-13T02:57:52;96468.41;;;10.81;32.71
25350;BME280;13302;48.796;11.978;2023-01-13T03:00:42;96462.53;;;10.82;32.48
25350;BME280;13302;48.796;11.978;2023-01-13T03:03:30;96459.38;;;10.84;32.68
25350;BME280;13302;48.796;11.978;2023-01-13T03:09:37;96449.50;;;10.83;32.62
25350;BME280;13302;48.796;11.978;2023-01-13T03:12:44;96452.28;;;10.83;32.24
25350;BME280;13302;48.796;11.978;2023-01-13T03:15:44;96459.75;;;10.82;32.29
25350;BME280;13302;48.796;11.978;2023-01-13T03:19:00;96451.38;;;10.79;32.23
25350;BME280;13302;48.796;11.978;2023-01-13T03:22:13;96443.81;;;10.76;32.24
25350;BME280;13302;48.796;11.978;2023-01-13T03:25:17;96446.16;;;10.74;32.48
25350;BME280;13302;48.796;11.978;2023-01-13T03:28:21;96455.59;;;10.73;32.40
25350;BME280;13302;48.796;11.978;2023-01-13T03:31:15;96450.50;;;10.75;32.40
25350;BME280;13302;48.796;11.978;2023-01-13T03:34:11;96461.19;;;10.76;32.19
25350;BME280;13302;48.796;11.978;2023-01-13T03:37:03;96460.78;;;10.74;32.20
25350;BME280;13302;48.796;11.978;2023-01-13T03:39:57;96451.28;;;10.75;32.46
25350;BME280;13302;48.796;11.978;2023-01-13T03:42:53;96443.81;;;10.76;32.33
25350;BME280;13302;48.796;11.978;2023-01-13T03:46:07;96444.97;;;10.75;32.39
25350;BME280;13302;48.796;11.978;2023-01-13T03:48:57;96436.66;;;10.75;32.20
25350;BME280;13302;48.796;11.978;2023-01-13T03:51:48;96439.44;;;10.75;32.29
25350;BME280;13302;48.796;11.978;2023-01-13T03:54:46;96433.91;;;10.75;32.46
25350;BME280;13302;48.796;11.978;2023-01-13T03:57:40;96430.72;;;10.73;32.36
25350;BME280;13302;48.796;11.978;2023-01-13T04:00:34;96433.13;;;10.74;32.38
25350;BME280;13302;48.796;11.978;2023-01-13T04:06:47;96430.38;;;10.74;32.39
25350;BME280;13302;48.796;11.978;2023-01-13T04:09:50;96433.91;;;10.75;32.60
25350;BME280;13302;48.796;11.978;2023-01-13T04:13:07;96437.03;;;10.73;32.59
25350;BME280;13302;48.796;11.978;2023-01-13T04:15:58;96432.69;;;10.72;32.43
25350;BME280;13302;48.796;11.978;2023-01-13T04:18:48;96420.81;;;10.72;32.42
25350;BME280;13302;48.796;11.978;2023-01-13T04:21:35;96433.13;;;10.74;32.29
25350;BME280;13302;48.796;11.978;2023-01-13T04:24:22;96430.38;;;10.74;32.48
25350;BME280;13302;48.796;11.978;2023-01-13T04:27:09;96419.72;;;10.76;32.53
25350;BME280;13302;48.796;11.978;2023-01-13T04:29:56;96426.06;;;10.77;32.25
25350;BME280;13302;48.796;11.978;2023-01-13T04:32:43;96416.97;;;10.76;32.53
25350;BME280;13302;48.796;11.978;2023-01-13T04:35:32;96409.03;;;10.75;32.28
25350;BME280;13302;48.796;11.978;2023-01-13T04:38:19;96403.13;;;10.76;32.52
25350;BME280;13302;48.796;11.978;2023-01-13T04:41:07;96408.31;;;10.78;32.43
25350;BME280;13302;48.796;11.978;2023-01-13T04:43:54;96414.19;;;10.76;32.30
25350;BME280;13302;48.796;11.978;2023-01-13T04:46:41;96410.28;;;10.77;32.32
25350;BME280;13302;48.796;11.978;2023-01-13T04:49:28;96415.44;;;10.79;32.39
25350;BME280;13302;48.796;11.978;2023-01-13T04:52:15;96415.88;;;10.81;32.19
25350;BME280;13302;48.796;11.978;2023-01-13T04:55:02;96417.50;;;10.82;32.02
25350;BME280;13302;48.796;11.978;2023-01-13T04:57:50;96420.31;;;10.85;32.19
25350;BME280;13302;48.796;11.978;2023-01-13T05:00:37;96421.13;;;10.86;32.05
25350;BME280;13302;48.796;11.978;2023-01-13T05:03:25;96408.91;;;10.87;32.05
25350;BME280;13302;48.796;11.978;2023-01-13T05:06:12;96416.00;;;10.88;31.92
25350;BME280;13302;48.796;11.978;2023-01-13T05:09:00;96408.16;;;10.90;32.01
25350;BME280;13302;48.796;11.978;2023-01-13T05:11:47;96411.75;;;10.90;32.08
25350;BME280;13302;48.796;11.978;2023-01-13T05:14:53;96419.66;;;10.92;31.73
25350;BME280;13302;48.796;11.978;2023-01-13T05:17:59;96408.16;;;10.90;31.97
25350;BME280;13302;48.796;11.978;2023-01-13T05:20:46;96405.03;;;10.91;31.94
25350;BME280;13302;48.796;11.978;2023-01-13T05:23:33;96410.56;;;10.91;31.70
25350;BME280;13302;48.796;11.978;2023-01-13T05:26:39;96408.97;;;10.90;31.65
25350;BME280;13302;48.796;11.978;2023-01-13T05:29:26;96408.59;;;10.92;31.56
25350;BME280;13302;48.796;11.978;2023-01-13T05:32:13;96404.66;;;10.93;31.56
25350;BME280;13302;48.796;11.978;2023-01-13T05:35:01;96399.94;;;10.93;31.66
25350;BME280;13302;48.796;11.978;2023-01-13T05:37:48;96399.59;;;10.95;31.41
25350;BME280;13302;48.796;11.978;2023-01-13T05:40:37;96397.19;;;10.93;31.56
25350;BME280;13302;48.796;11.978;2023-01-13T05:43:45;96403.88;;;10.92;31.49
25350;BME280;13302;48.796;11.978;2023-01-13T05:46:32;96410.66;;;10.95;31.36
25350;BME280;13302;48.796;11.978;2023-01-13T05:49:19;96411.81;;;10.94;31.31
25350;BME280;13302;48.796;11.978;2023-01-13T05:52:06;96410.66;;;10.95;31.27
25350;BME280;13302;48.796;11.978;2023-01-13T05:54:53;96402.34;;;10.95;31.59
25350;BME280;13302;48.796;11.978;2023-01-13T05:57:41;96403.94;;;10.96;31.47
25350;BME280;13302;48.796;11.978;2023-01-13T06:00:28;96412.22;;;10.96;31.30
25350;BME280;13302;48.796;11.978;2023-01-13T06:03:16;96416.53;;;10.93;31.54
25350;BME280;13302;48.796;11.978;2023-01-13T06:06:06;96408.25;;;10.93;31.53
25350;BME280;13302;48.796;11.978;2023-01-13T06:08:55;96405.03;;;10.91;31.30
25350;BME280;13302;48.796;11.978;2023-01-13T06:11:42;96410.56;;;10.91;31.54
25350;BME280;13302;48.796;11.978;2023-01-13T06:14:29;96401.09;;;10.92;31.42
25350;BME280;13302;48.796;11.978;2023-01-13T06:17:25;96403.06;;;10.92;31.54
25350;BME280;13302;48.796;11.978;2023-01-13T06:20:14;96403.06;;;10.92;31.60
25350;BME280;13302;48.796;11.978;2023-01-13T06:23:02;96400.28;;;10.92;31.69
25350;BME280;13302;48.796;11.978;2023-01-13T06:26:04;96409.78;;;10.91;31.58
25350;BME280;13302;48.796;11.978;2023-01-13T06:28:54;96406.63;;;10.92;31.76
25350;BME280;13302;48.796;11.978;2023-01-13T06:31:41;96403.44;;;10.90;31.56
25350;BME280;13302;48.796;11.978;2023-01-13T06:34:28;96402.63;;;10.90;31.94
25350;BME280;13302;48.796;11.978;2023-01-13T06:37:16;96407.00;;;10.91;31.74
25350;BME280;13302;48.796;11.978;2023-01-13T06:40:09;96405.75;;;10.88;31.83
25350;BME280;13302;48.796;11.978;2023-01-13T06:42:56;96413.31;;;10.91;32.10
25350;BME280;13302;48.796;11.978;2023-01-13T06:46:03;96403.81;;;10.89;31.63
25350;BME280;13302;48.796;11.978;2023-01-13T06:48:50;96415.31;;;10.91;31.76
25350;BME280;13302;48.796;11.978;2023-01-13T06:51:37;96417.69;;;10.92;31.89
25350;BME280;13302;48.796;11.978;2023-01-13T06:54:24;96405.81;;;10.92;31.80
25350;BME280;13302;48.796;11.978;2023-01-13T06:57:13;96405.47;;;10.93;31.93
25350;BME280;13302;48.796;11.978;2023-01-13T07:00:00;96406.69;;;10.96;31.72
25350;BME280;13302;48.796;11.978;2023-01-13T07:02:47;96409.47;;;10.96;31.78
25350;BME280;13302;48.796;11.978;2023-01-13T07:05:35;96405.91;;;10.95;31.65
25350;BME280;13302;48.796;11.978;2023-01-13T07:08:23;96406.28;;;10.94;31.80
25350;BME280;13302;48.796;11.978;2023-01-13T07:11:10;96404.75;;;10.96;31.99
25350;BME280;13302;48.796;11.978;2023-01-13T07:13:57;96419.81;;;10.99;31.57
25350;BME280;13302;48.796;11.978;2023-01-13T07:17:03;96408.75;;;10.99;31.88
25350;BME280;13302;48.796;11.978;2023-01-13T07:19:51;96419.81;;;10.99;31.96
25350;BME280;13302;48.796;11.978;2023-01-13T07:22:39;96424.91;;;10.97;31.72
25350;BME280;13302;48.796;11.978;2023-01-13T07:25:26;96423.75;;;10.98;31.77
25350;BME280;13302;48.796;11.978;2023-01-13T07:28:13;96420.19;;;10.97;31.78
25350;BME280;13302;48.796;11.978;2023-01-13T07:31:00;96412.69;;;10.98;32.12
25350;BME280;13302;48.796;11.978;2023-01-13T07:33:47;96402.41;;;10.98;31.85
25350;BME280;13302;48.796;11.978;2023-01-13T07:36:35;96407.56;;;11.00;32.04
25350;BME280;13302;48.796;11.978;2023-01-13T07:39:22;96401.22;;;10.99;32.19
25350;BME280;13302;48.796;11.978;2023-01-13T07:42:09;96412.28;;;10.99;32.02
25350;BME280;13302;48.796;11.978;2023-01-13T07:45:15;96413.09;;;11.00;31.95
25350;BME280;13302;48.796;11.978;2023-01-13T07:48:02;96417.81;;;10.99;32.05
25350;BME280;13302;48.796;11.978;2023-01-13T07:50:49;96414.66;;;10.97;32.07
25350;BME280;13302;48.796;11.978;2023-01-13T07:53:38;96411.88;;;10.97;32.23
25350;BME280;13302;48.796;11.978;2023-01-13T07:56:25;96409.53;;;10.99;31.98
25350;BME280;13302;48.796;11.978;2023-01-13T07:59:12;96413.50;;;10.98;32.21
25350;BME280;13302;48.796;11.978;2023-01-13T08:01:59;96412.75;;;11.01;31.97
25350;BME280;13302;48.796;11.978;2023-01-13T08:04:46;96409.63;;;11.03;32.13
25350;BME280;13302;48.796;11.978;2023-01-13T08:07:34;96417.94;;;11.03;32.33
25350;BME280;13302;48.796;11.978;2023-01-13T08:10:21;96415.56;;;11.05;32.33
25350;BME280;13302;48.796;11.978;2023-01-13T08:13:09;96427.88;;;11.08;32.28
25350;BME280;13302;48.796;11.978;2023-01-13T08:16:10;96431.81;;;11.07;32.44
25350;BME280;13302;48.796;11.978;2023-01-13T08:18:57;96428.69;;;11.08;32.42
25350;BME280;13302;48.796;11.978;2023-01-13T08:21:44;96428.25;;;11.06;32.45
25350;BME280;13302;48.796;11.978;2023-01-13T08:24:32;96438.94;;;11.08;32.45
25350;BME280;13302;48.796;11.978;2023-01-13T08:27:19;96427.88;;;11.08;32.51
25350;BME280;13302;48.796;11.978;2023-01-13T08:30:07;96433.41;;;11.08;32.44
25350;BME280;13302;48.796;11.978;2023-01-13T08:32:54;96433.84;;;11.10;32.60
25350;BME280;13302;48.796;11.978;2023-01-13T08:35:41;96447.34;;;11.11;32.83
25350;BME280;13302;48.796;11.978;2023-01-13T08:38:28;96447.75;;;11.13;32.61
25350;BME280;13302;48.796;11.978;2023-01-13T08:41:16;96444.63;;;11.15;32.61
25350;BME280;13302;48.796;11.978;2023-01-13T08:44:28;96415.00;;;11.15;32.89
25350;BME280;13302;48.796;11.978;2023-01-13T08:47:15;96449.00;;;11.16;32.69
25350;BME280;13302;48.796;11.978;2023-01-13T08:50:03;96445.44;;;11.15;32.93
25350;BME280;13302;48.796;11.978;2023-01-13T08:52:51;96437.94;;;11.16;32.76
25350;BME280;13302;48.796;11.978;2023-01-13T08:55:38;96449.00;;;11.16;32.79
25350;BME280;13302;48.796;11.978;2023-01-13T08:58:25;96440.72;;;11.16;32.69
25350;BME280;13302;48.796;11.978;2023-01-13T09:01:17;96429.19;;;11.14;32.76
25350;BME280;13302;48.796;11.978;2023-01-13T09:04:08;96434.38;;;11.15;32.74
25350;BME280;13302;48.796;11.978;2023-01-13T09:06:59;96445.44;;;11.15;33.17
25350;BME280;13302;48.796;11.978;2023-01-13T09:09:48;96456.94;;;11.17;32.89
25350;BME280;13302;48.796;11.978;2023-01-13T09:12:35;96443.91;;;11.18;32.96
25350;BME280;13302;48.796;11.978;2023-01-13T09:15:43;96437.94;;;11.16;33.18
25350;BME280;13302;48.796;11.978;2023-01-13T09:18:30;96438.38;;;11.18;32.86
25350;BME280;13302;48.796;11.978;2023-01-13T09:21:17;96441.13;;;11.18;32.96
25350;BME280;13302;48.796;11.978;2023-01-13T09:24:07;96453.00;;;11.18;33.01
25350;BME280;13302;48.796;11.978;2023-01-13T09:26:54;96444.69;;;11.18;33.14
25350;BME280;13302;48.796;11.978;2023-01-13T09:29:41;96445.84;;;11.17;32.95
25350;BME280;13302;48.796;11.978;2023-01-13T09:32:28;96450.97;;;11.15;33.01
25350;BME280;13302;48.796;11.978;2023-01-13T09:35:16;96446.59;;;11.14;33.27
25350;BME280;13302;48.796;11.978;2023-01-13T09:38:03;96450.97;;;11.15;33.20
25350;BME280;13302;48.796;11.978;2023-01-13T09:40:52;96442.66;;;11.15;33.44
25350;BME280;13302;48.796;11.978;2023-01-13T09:43:39;96446.59;;;11.14;33.31
25350;BME280;13302;48.796;11.978;2023-01-13T09:46:46;96449.34;;;11.14;33.37
25350;BME280;13302;48.796;11.978;2023-01-13T09:49:39;96454.16;;;11.17;33.34
25350;BME280;13302;48.796;11.978;2023-01-13T09:52:27;96459.34;;;11.19;33.30
25350;BME280;13302;48.796;11.978;2023-01-13T09:55:17;96451.84;;;11.19;33.46
25350;BME280;13302;48.796;11.978;2023-01-13T09:58:14;96450.22;;;11.18;33.37
25350;BME280;13302;48.796;11.978;2023-01-13T10:01:20;96443.97;;;11.21;33.64
25350;BME280;13302;48.796;11.978;2023-01-13T10:04:13;96447.19;;;11.23;33.28
25350;BME280;13302;48.796;11.978;2023-01-13T10:07:01;96443.22;;;11.24;33.53
25350;BME280;13302;48.796;11.978;2023-01-13T10:09:51;96435.38;;;11.26;33.63
25350;BME280;13302;48.796;11.978;2023-01-13T10:12:39;96429.47;;;11.28;33.48
25350;BME280;13302;48.796;11.978;2023-01-13T10:16:05;96419.63;;;11.30;33.59
25350;BME280;13302;48.796;11.978;2023-01-13T10:19:05;96429.16;;;11.33;33.44
25350;BME280;13302;48.796;11.978;2023-01-13T10:22:17;96403.53;;;11.36;33.74
25350;BME280;13302;48.796;11.978;2023-01-13T10:28:14;96408.03;;;11.44;33.65
25350;BME280;13302;48.796;11.978;2023-01-13T10:31:12;96407.28;;;11.47;33.40
25350;BME280;13302;48.796;11.978;2023-01-13T10:34:02;96414.50;;;11.51;33.35
25350;BME280;13302;48.796;11.978;2023-01-13T10:36:56;96392.81;;;11.54;33.40
25350;BME280;13302;48.796;11.978;2023-01-13T10:39:48;96390.09;;;11.57;33.67
25350;BME280;13302;48.796;11.978;2023-01-13T10:42:35;96387.41;;;11.61;33.46
25350;BME280;13302;48.796;11.978;2023-01-13T10:45:24;96391.75;;;11.62;33.66
25350;BME280;13302;48.796;11.978;2023-01-13T10:48:12;96394.59;;;11.65;33.40
25350;BME280;13302;48.796;11.978;2023-01-13T10:51:30;96385.06;;;11.63;33.38
25350;BME280;13302;48.796;11.978;2023-01-13T10:54:28;96388.28;;;11.65;33.47
25350;BME280;13302;48.796;11.978;2023-01-13T11:00:25;96364.56;;;11.67;33.27
25350;BME280;13302;48.796;11.978;2023-01-13T11:03:17;96376.06;;;11.69;33.62
25350;BME280;13302;48.796;11.978;2023-01-13T11:06:05;96372.53;;;11.69;33.49
25350;BME280;13302;48.796;11.978;2023-01-13T11:08:54;96383.22;;;11.70;33.56
25350;BME280;13302;48.796;11.978;2023-01-13T11:11:44;96377.66;;;11.70;33.51
25350;BME280;13302;48.796;11.978;2023-01-13T11:14:42;96378.47;;;11.71;33.68
25350;BME280;13302;48.796;11.978;2023-01-13T11:17:52;96373.38;;;11.73;33.29
25350;BME280;13302;48.796;11.978;2023-01-13T11:20:47;96374.97;;;11.74;33.34
25350;BME280;13302;48.796;11.978;2023-01-13T11:23:41;96374.16;;;11.73;33.66
25350;BME280;13302;48.796;11.978;2023-01-13T11:26:58;96376.91;;;11.73;33.53
25350;BME280;13302;48.796;11.978;2023-01-13T11:33:06;96395.09;;;11.71;33.59
25350;BME280;13302;48.796;11.978;2023-01-13T11:36:19;96385.63;;;11.72;33.50
25350;BME280;13302;48.796;11.978;2023-01-13T11:39:17;96380.09;;;11.72;33.55
25350;BME280;13302;48.796;11.978;2023-01-13T11:42:28;96388.38;;;11.72;33.48
25350;BME280;13302;48.796;11.978;2023-01-13T11:48:18;96387.22;;;11.73;33.85
25350;BME280;13302;48.796;11.978;2023-01-13T11:54:32;96374.59;;;11.75;33.98
25350;BME280;13302;48.796;11.978;2023-01-13T11:57:50;96374.25;;;11.77;33.85
25350;BME280;13302;48.796;11.978;2023-01-13T12:04:17;96386.47;;;11.76;34.19
25350;BME280;13302;48.796;11.978;2023-01-13T12:07:17;96413.41;;;11.79;34.39
25350;BME280;13302;48.796;11.978;2023-01-13T12:10:20;96400.38;;;11.79;34.13
25350;BME280;13302;48.796;11.978;2023-01-13T12:13:36;96412.25;;;11.80;34.42
25350;BME280;13302;48.796;11.978;2023-01-13T12:16:27;96410.66;;;11.79;34.61
25350;BME280;13302;48.796;11.978;2023-01-13T12:19:28;96446.66;;;11.79;34.54
25350;BME280;13302;48.796;11.978;2023-01-13T12:22:22;96418.53;;;11.77;34.72
25350;BME280;13302;48.796;11.978;2023-01-13T12:25:39;96425.25;;;11.76;35.29
25350;BME280;13302;48.796;11.978;2023-01-13T12:28:40;96426.00;;;11.73;35.05
25350;BME280;13302;48.796;11.978;2023-01-13T12:31:30;96424.81;;;11.74;35.46
25350;BME280;13302;48.796;11.978;2023-01-13T12:37:28;96423.22;;;11.73;35.41
25350;BME280;13302;48.796;11.978;2023-01-13T12:43:27;96433.84;;;11.71;35.42
25350;BME280;13302;48.796;11.978;2023-01-13T12:46:43;96428.25;;;11.67;35.41
25350;BME280;13302;48.796;11.978;2023-01-13T12:49:33;96429.88;;;11.68;35.85
25350;BME280;13302;48.796;11.978;2023-01-13T12:52:20;96435.41;;;11.68;35.72
25350;BME280;13302;48.796;11.978;2023-01-13T12:55:10;96441.28;;;11.67;35.53
25350;BME280;13302;48.796;11.978;2023-01-13T13:00:57;96448.38;;;11.64;35.61
25350;BME280;13302;48.796;11.978;2023-01-13T13:04:08;96465.72;;;11.61;35.74
25350;BME280;13302;48.796;11.978;2023-01-13T13:07:07;96455.00;;;11.60;35.81
25350;BME280;13302;48.796;11.978;2023-01-13T13:10:00;96462.53;;;11.59;35.50
25350;BME280;13302;48.796;11.978;2023-01-13T13:12:59;96455.75;;;11.57;35.83
25350;BME280;13302;48.796;11.978;2023-01-13T13:28:00;96469.41;;;11.49;36.05
25350;BME280;13302;48.796;11.978;2023-01-13T13:31:03;96482.84;;;11.47;35.89
25350;BME280;13302;48.796;11.978;2023-01-13T13:37:43;96470.44;;;11.41;35.84
25350;BME280;13302;48.796;11.978;2023-01-13T13:40:51;96464.03;;;11.37;35.96
25350;BME280;13302;48.796;11.978;2023-01-13T13:44:02;96463.97;;;11.34;36.21
25350;BME280;13302;48.796;11.978;2023-01-13T13:47:12;96457.22;;;11.31;36.18
25350;BME280;13302;48.796;11.978;2023-01-13T13:50:05;96466.31;;;11.32;36.37
25350;BME280;13302;48.796;11.978;2023-01-13T13:52:59;96479.72;;;11.30;36.31
25350;BME280;13302;48.796;11.978;2023-01-13T13:55:59;96486.41;;;11.29;36.29
25350;BME280;13302;48.796;11.978;2023-01-13T13:58:48;96500.31;;;11.32;36.36
25350;BME280;13302;48.796;11.978;2023-01-13T14:01:37;96502.72;;;11.34;36.54
25350;BME280;13302;48.796;11.978;2023-01-13T14:04:36;96508.25;;;11.34;36.21
25350;BME280;13302;48.796;11.978;2023-01-13T14:07:24;96521.75;;;11.35;36.20
25350;BME280;13302;48.796;11.978;2023-01-13T14:10:28;96524.84;;;11.34;36.12
25350;BME280;13302;48.796;11.978;2023-01-13T14:13:25;96531.13;;;11.31;36.36
25350;BME280;13302;48.796;11.978;2023-01-13T14:16:13;96525.59;;;11.31;35.97
25350;BME280;13302;48.796;11.978;2023-01-13T14:19:01;96523.19;;;11.29;36.04
25350;BME280;13302;48.796;11.978;2023-01-13T14:21:48;96532.63;;;11.28;36.22
25350;BME280;13302;48.796;11.978;2023-01-13T14:24:47;96534.97;;;11.26;36.32
25350;BME280;13302;48.796;11.978;2023-01-13T14:27:41;96558.28;;;11.25;36.26
25350;BME280;13302;48.796;11.978;2023-01-13T14:30:29;96563.00;;;11.25;36.33
25350;BME280;13302;48.796;11.978;2023-01-13T14:33:19;96576.03;;;11.24;36.27
25350;BME280;13302;48.796;11.978;2023-01-13T14:39:24;96589.00;;;11.20;36.02
25350;BME280;13302;48.796;11.978;2023-01-13T14:42:12;96592.88;;;11.16;36.20
25350;BME280;13302;48.796;11.978;2023-01-13T14:45:00;96569.47;;;11.13;36.38
25350;BME280;13302;48.796;11.978;2023-01-13T14:47:53;96563.41;;;11.08;36.29
25350;BME280;13302;48.796;11.978;2023-01-13T14:50:44;96584.78;;;11.07;36.76
25350;BME280;13302;48.796;11.978;2023-01-13T14:53:44;96595.03;;;11.07;36.33
25350;BME280;13302;48.796;11.978;2023-01-13T14:59:46;96604.31;;;10.98;36.55
25350;BME280;13302;48.796;11.978;2023-01-13T15:02:39;96612.91;;;10.93;36.37
25350;BME280;13302;48.796;11.978;2023-01-13T15:05:36;96614.44;;;10.91;36.22
25350;BME280;13302;48.796;11.978;2023-01-13T15:08:25;96632.09;;;10.86;36.33
25350;BME280;13302;48.796;11.978;2023-01-13T15:11:20;96608.63;;;10.80;36.24
25350;BME280;13302;48.796;11.978;2023-01-13T15:14:11;96595.94;;;10.79;36.21
25350;BME280;13302;48.796;11.978;2023-01-13T15:16:58;96565.09;;;10.77;36.32
25350;BME280;13302;48.796;11.978;2023-01-13T15:19:45;96592.75;;;10.77;36.16
25350;BME280;13302;48.796;11.978;2023-01-13T15:22:32;96589.91;;;10.74;36.07
25350;BME280;13302;48.796;11.978;2023-01-13T15:25:19;96601.31;;;10.72;36.23
25350;BME280;13302;48.796;11.978;2023-01-13T15:28:13;96613.53;;;10.71;36.04
25350;BME280;13302;48.796;11.978;2023-01-13T15:31:02;96625.41;;;10.72;35.98
25350;BME280;13302;48.796;11.978;2023-01-13T15:33:50;96629.22;;;10.67;36.21
25350;BME280;13302;48.796;11.978;2023-01-13T15:36:38;96622.91;;;10.67;36.11
25350;BME280;13302;48.796;11.978;2023-01-13T15:39:25;96633.94;;;10.67;35.92
25350;BME280;13302;48.796;11.978;2023-01-13T15:42:12;96654.50;;;10.66;35.71
25350;BME280;13302;48.796;11.978;2023-01-13T15:45:18;96659.94;;;10.62;35.71
25350;BME280;13302;48.796;11.978;2023-01-13T15:48:24;96659.47;;;10.60;35.87
25350;BME280;13302;48.796;11.978;2023-01-13T15:51:12;96668.09;;;10.58;35.58
25350;BME280;13302;48.796;11.978;2023-01-13T15:54:00;96667.97;;;10.55;35.79
25350;BME280;13302;48.796;11.978;2023-01-13T15:56:48;96681.38;;;10.53;35.67
25350;BME280;13302;48.796;11.978;2023-01-13T15:59:35;96680.47;;;10.49;35.94
25350;BME280;13302;48.796;11.978;2023-01-13T16:02:23;96686.34;;;10.47;35.61
25350;BME280;13302;48.796;11.978;2023-01-13T16:05:11;96690.25;;;10.46;35.70